createdAt,value
2019-05-25T00:02:04.547Z,3.87
2019-05-25T00:04:47.180Z,4.20
2019-05-25T00:07:20.035Z,3.73
2019-05-25T00:10:01.655Z,4.10
2019-05-25T00:12:35.549Z,4.27
2019-05-25T00:15:12.297Z,3.73
2019-05-25T00:17:47.780Z,3.87
2019-05-25T00:20:19.789Z,3.90
2019-05-25T00:22:59.601Z,3.77
2019-05-25T00:25:40.517Z,3.47
2019-05-25T00:28:19.384Z,3.80
2019-05-25T00:30:48.422Z,3.60
2019-05-25T00:33:27.479Z,3.93
2019-05-25T00:35:57.722Z,4.03
2019-05-25T00:38:34.357Z,3.70
2019-05-25T00:41:07.794Z,4.00
2019-05-25T00:43:38.564Z,3.70
2019-05-25T00:46:13.702Z,3.27
2019-05-25T00:48:45.313Z,3.33
2019-05-25T00:51:18.554Z,3.50
2019-05-25T00:53:50.584Z,3.33
2019-05-25T00:56:22.335Z,3.10
2019-05-25T00:59:02.131Z,3.47
2019-05-25T01:01:41.517Z,3.57
2019-05-25T01:04:15.515Z,3.50
2019-05-25T01:06:48.803Z,3.40
2019-05-25T01:09:19.862Z,3.27
2019-05-25T01:11:52.142Z,3.40
2019-05-25T01:14:25.099Z,3.47
2019-05-25T01:16:56.640Z,3.27
2019-05-25T01:19:32.825Z,3.37
2019-05-25T01:22:08.279Z,3.20
2019-05-25T01:24:44.815Z,3.27
2019-05-25T01:27:13.454Z,3.50
2019-05-25T01:29:48.686Z,3.13
2019-05-25T01:32:20.048Z,2.90
2019-05-25T01:34:56.156Z,3.37
2019-05-25T01:37:30.823Z,3.20
2019-05-25T01:40:00.544Z,3.73
2019-05-25T01:42:34.844Z,2.90
2019-05-25T01:45:09.484Z,3.00
2019-05-25T01:47:43.286Z,3.30
2019-05-25T01:50:17.366Z,3.13
2019-05-25T01:52:49.126Z,3.30
2019-05-25T01:55:22.455Z,3.00
2019-05-25T01:57:53.315Z,3.23
2019-05-25T02:00:29.115Z,2.77
2019-05-25T02:03:00.670Z,2.90
2019-05-25T02:05:32.391Z,3.50
2019-05-25T02:08:08.127Z,3.30
2019-05-25T02:10:41.507Z,3.03
2019-05-25T02:13:18.570Z,3.17
2019-05-25T02:15:49.857Z,3.07
2019-05-25T02:18:20.540Z,2.77
2019-05-25T02:20:55.582Z,3.10
2019-05-25T02:23:27.426Z,2.70
2019-05-25T02:25:57.972Z,3.20
2019-05-25T02:28:36.164Z,2.77
2019-05-25T02:31:17.465Z,3.00
2019-05-25T02:33:49.498Z,2.93
2019-05-25T02:36:24.981Z,2.73
2019-05-25T02:38:55.291Z,2.80
2019-05-25T02:41:31.687Z,2.87
2019-05-25T02:44:06.668Z,2.93
2019-05-25T02:46:39.863Z,3.30
2019-05-25T02:49:14.828Z,2.80
2019-05-25T02:51:47.842Z,2.80
2019-05-25T02:54:23.001Z,3.20
2019-05-25T02:56:53.521Z,3.00
2019-05-25T02:59:31.205Z,2.67
2019-05-25T03:02:09.111Z,2.87
2019-05-25T03:04:40.870Z,2.73
2019-05-25T03:07:30.497Z,2.93
2019-05-25T03:10:05.656Z,3.17
2019-05-25T03:12:36.615Z,2.50
2019-05-25T03:15:15.317Z,2.87
2019-05-25T03:18:00.164Z,2.83
2019-05-25T03:20:41.200Z,3.00
2019-05-25T03:23:22.323Z,2.80
2019-05-25T03:25:53.946Z,2.83
2019-05-25T03:28:24.699Z,3.20
2019-05-25T03:31:02.073Z,2.80
2019-05-25T03:33:33.378Z,2.63
2019-05-25T03:36:08.514Z,3.63
2019-05-25T03:38:43.141Z,2.90
2019-05-25T03:41:18.809Z,2.83
2019-05-25T03:43:57.843Z,2.70
2019-05-25T03:46:29.851Z,2.60
2019-05-25T03:49:08.244Z,3.00
2019-05-25T03:51:46.410Z,2.60
2019-05-25T03:54:25.891Z,2.97
2019-05-25T03:59:58.751Z,2.40
2019-05-25T04:02:50.759Z,2.87
2019-05-25T04:05:21.473Z,2.83
2019-05-25T04:07:57.068Z,2.80
2019-05-25T04:10:38.897Z,2.90
2019-05-25T04:13:15.406Z,2.40
2019-05-25T04:15:53.049Z,2.43
2019-05-25T04:18:26.508Z,2.87
2019-05-25T04:21:04.372Z,2.27
2019-05-25T04:23:35.601Z,2.70
2019-05-25T04:26:21.837Z,2.73
2019-05-25T04:28:47.083Z,2.73
2019-05-25T04:31:21.070Z,2.70
2019-05-25T04:33:56.038Z,2.97
2019-05-25T04:36:30.026Z,2.40
2019-05-25T04:39:04.036Z,2.63
2019-05-25T04:41:35.821Z,2.40
2019-05-25T04:44:05.948Z,2.73
2019-05-25T04:46:39.800Z,2.73
2019-05-25T04:49:19.007Z,2.40
2019-05-25T04:51:57.483Z,2.67
2019-05-25T04:54:29.331Z,2.80
2019-05-25T04:57:02.728Z,2.30
2019-05-25T04:59:37.260Z,2.93
2019-05-25T05:02:07.556Z,3.17
2019-05-25T05:04:44.085Z,3.00
2019-05-25T05:07:22.796Z,2.73
2019-05-25T05:10:05.435Z,2.70
2019-05-25T05:12:40.948Z,2.60
2019-05-25T05:15:13.242Z,2.70
2019-05-25T05:17:48.931Z,2.40
2019-05-25T05:20:20.278Z,2.17
2019-05-25T05:22:49.214Z,2.17
2019-05-25T05:25:20.395Z,2.43
2019-05-25T05:27:52.987Z,2.30
2019-05-25T05:30:32.877Z,2.20
2019-05-25T05:33:04.579Z,2.47
2019-05-25T05:35:42.416Z,2.67
2019-05-25T05:38:14.221Z,2.50
2019-05-25T05:40:57.941Z,2.50
2019-05-25T05:43:34.169Z,3.03
2019-05-25T05:46:09.276Z,3.03
2019-05-25T05:48:46.954Z,2.43
2019-05-25T05:51:19.791Z,2.63
2019-05-25T05:53:57.407Z,2.73
2019-05-25T05:56:34.453Z,2.80
2019-05-25T05:59:03.826Z,3.23
2019-05-25T06:01:38.600Z,3.77
2019-05-25T06:04:16.439Z,4.67
2019-05-25T06:06:47.421Z,5.00
2019-05-25T06:09:20.775Z,5.47
2019-05-25T06:11:56.802Z,4.50
2019-05-25T06:14:36.009Z,5.00
2019-05-25T06:17:10.335Z,5.40
2019-05-25T06:19:50.927Z,5.63
2019-05-25T06:22:22.332Z,5.47
2019-05-25T06:24:56.911Z,5.93
2019-05-25T06:27:33.469Z,6.47
2019-05-25T06:30:07.989Z,6.70
2019-05-25T06:32:39.943Z,6.50
2019-05-25T06:35:17.795Z,7.00
2019-05-25T06:37:50.019Z,6.27
2019-05-25T06:40:40.769Z,6.07
2019-05-25T06:43:14.071Z,7.10
2019-05-25T06:45:50.273Z,6.67
2019-05-25T06:48:30.217Z,6.03
2019-05-25T06:51:06.413Z,6.90
2019-05-25T06:53:44.144Z,6.60
2019-05-25T06:56:17.835Z,6.97
2019-05-25T06:58:56.881Z,5.90
2019-05-25T07:01:27.932Z,5.57
2019-05-25T07:04:02.687Z,5.80
2019-05-25T07:06:41.717Z,5.70
2019-05-25T07:09:18.756Z,5.70
2019-05-25T07:11:47.028Z,5.57
2019-05-25T07:14:22.665Z,5.60
2019-05-25T07:17:03.422Z,6.07
2019-05-25T07:19:38.861Z,5.30
2019-05-25T07:22:11.918Z,5.37
2019-05-25T07:24:49.212Z,5.30
2019-05-25T07:27:29.405Z,4.90
2019-05-25T07:30:04.193Z,5.23
2019-05-25T07:32:35.091Z,4.60
2019-05-25T07:35:08.543Z,4.30
2019-05-25T07:37:40.363Z,4.50
2019-05-25T07:40:13.207Z,4.50
2019-05-25T07:42:51.040Z,5.30
2019-05-25T07:45:26.618Z,5.23
2019-05-25T07:48:20.248Z,5.10
2019-05-25T07:50:57.409Z,4.93
2019-05-25T07:53:43.011Z,5.30
2019-05-25T07:56:12.400Z,6.10
2019-05-25T07:58:47.777Z,5.57
2019-05-25T08:01:21.459Z,5.43
2019-05-25T08:03:56.395Z,5.93
2019-05-25T08:06:28.857Z,6.00
2019-05-25T08:09:08.225Z,5.73
2019-05-25T08:11:44.769Z,5.97
2019-05-25T08:14:24.673Z,6.50
2019-05-25T08:17:04.374Z,5.33
2019-05-25T08:19:42.308Z,6.07
2019-05-25T08:22:14.625Z,5.60
2019-05-25T08:24:45.239Z,5.40
2019-05-25T08:27:16.824Z,5.97
2019-05-25T08:29:59.140Z,5.80
2019-05-25T08:32:50.105Z,6.03
2019-05-25T08:35:19.019Z,5.73
2019-05-25T08:37:54.518Z,5.93
2019-05-25T08:40:25.349Z,6.10
2019-05-25T08:43:02.048Z,6.73
2019-05-25T08:45:37.347Z,5.87
2019-05-25T08:48:11.276Z,7.20
2019-05-25T08:50:45.441Z,7.40
2019-05-25T08:53:16.152Z,7.23
2019-05-25T08:55:52.825Z,7.13
2019-05-25T08:58:26.023Z,6.67
2019-05-25T09:00:59.540Z,6.03
2019-05-25T09:03:33.127Z,6.73
2019-05-25T09:06:07.158Z,6.47
2019-05-25T09:08:38.426Z,6.60
2019-05-25T09:11:13.753Z,6.90
2019-05-25T09:13:42.590Z,6.47
2019-05-25T09:16:12.629Z,7.60
2019-05-25T09:18:42.376Z,6.60
2019-05-25T09:21:13.105Z,7.37
2019-05-25T09:23:48.599Z,7.07
2019-05-25T09:26:18.880Z,5.80
2019-05-25T09:29:04.046Z,7.77
2019-05-25T09:31:29.217Z,5.70
2019-05-25T09:34:06.300Z,5.20
2019-05-25T09:36:38.959Z,5.93
2019-05-25T09:39:12.530Z,5.13
2019-05-25T09:41:43.539Z,6.00
2019-05-25T09:44:16.647Z,5.87
2019-05-25T09:46:49.901Z,5.80
2019-05-25T09:49:22.174Z,6.30
2019-05-25T09:51:59.183Z,4.60
2019-05-25T09:54:36.525Z,4.80
2019-05-25T09:57:09.661Z,5.20
2019-05-25T09:59:44.678Z,5.63
2019-05-25T10:02:17.230Z,4.97
2019-05-25T10:04:47.568Z,4.87
2019-05-25T10:07:28.745Z,5.30
2019-05-25T10:10:07.675Z,6.57
2019-05-25T10:15:46.071Z,6.00
2019-05-25T10:18:27.490Z,5.40
2019-05-25T10:21:00.662Z,6.10
2019-05-25T10:23:40.005Z,5.90
2019-05-25T10:26:04.631Z,5.90
2019-05-25T10:28:34.775Z,6.27
2019-05-25T10:31:10.007Z,6.07
2019-05-25T10:33:45.934Z,6.00
2019-05-25T10:36:18.267Z,5.87
2019-05-25T10:38:47.737Z,6.17
2019-05-25T10:41:18.499Z,6.20
2019-05-25T10:43:48.747Z,6.23
2019-05-25T10:46:18.621Z,6.93
2019-05-25T10:48:53.519Z,6.53
2019-05-25T10:51:37.675Z,5.23
2019-05-25T10:54:12.722Z,6.10
2019-05-25T10:56:40.817Z,6.97
2019-05-25T10:59:12.222Z,6.00
2019-05-25T11:01:42.417Z,6.83
2019-05-25T11:04:12.038Z,6.80
2019-05-25T11:06:43.861Z,6.70
2019-05-25T11:09:21.389Z,6.07
2019-05-25T11:11:55.008Z,7.00
2019-05-25T11:14:32.226Z,7.33
2019-05-25T11:17:02.094Z,7.20
2019-05-25T11:19:35.659Z,7.00
2019-05-25T11:22:11.969Z,7.07
2019-05-25T11:24:43.842Z,7.70
2019-05-25T11:27:20.318Z,7.50
2019-05-25T11:29:51.277Z,8.33
2019-05-25T11:32:20.649Z,8.23
2019-05-25T11:34:55.478Z,7.63
2019-05-25T11:37:28.350Z,7.03
2019-05-25T11:39:57.215Z,7.93
2019-05-25T11:42:26.620Z,6.80
2019-05-25T11:44:55.674Z,6.37
2019-05-25T11:47:24.519Z,6.97
2019-05-25T11:49:53.762Z,7.50
2019-05-25T11:52:28.340Z,7.97
2019-05-25T11:54:56.830Z,7.10
2019-05-25T11:57:28.790Z,8.67
2019-05-25T12:00:00.393Z,8.60
2019-05-25T12:02:30.478Z,7.87
2019-05-25T12:04:59.355Z,8.27
2019-05-25T12:07:34.349Z,7.80
2019-05-25T12:10:04.727Z,7.83
2019-05-25T12:12:47.921Z,8.20
2019-05-25T12:15:16.125Z,8.63
2019-05-25T12:17:47.891Z,8.10
2019-05-25T12:20:22.278Z,7.93
2019-05-25T12:22:59.771Z,7.83
2019-05-25T12:25:29.497Z,7.20
2019-05-25T12:28:08.494Z,8.57
2019-05-25T12:30:48.509Z,8.30
2019-05-25T12:33:26.083Z,9.07
2019-05-25T12:36:02.698Z,7.77
2019-05-25T12:38:35.256Z,9.37
2019-05-25T12:41:16.305Z,8.87
2019-05-25T12:43:47.889Z,7.87
2019-05-25T12:46:17.412Z,7.90
2019-05-25T12:48:46.163Z,8.80
2019-05-25T12:51:17.703Z,8.13
2019-05-25T12:53:50.883Z,7.27
2019-05-25T12:56:23.139Z,6.07
2019-05-25T12:59:00.806Z,5.50
2019-05-25T13:01:36.776Z,7.30
2019-05-25T13:04:06.549Z,7.27
2019-05-25T13:06:38.390Z,6.50
2019-05-25T13:09:07.858Z,5.43
2019-05-25T13:11:43.898Z,5.40
2019-05-25T13:14:14.814Z,6.00
2019-05-25T13:16:45.496Z,5.07
2019-05-25T13:19:15.600Z,6.37
2019-05-25T13:21:51.935Z,5.80
2019-05-25T13:24:26.593Z,5.50
2019-05-25T13:26:55.459Z,5.93
2019-05-25T13:29:30.846Z,4.50
2019-05-25T13:32:09.514Z,5.87
2019-05-25T13:34:45.792Z,4.13
2019-05-25T13:37:19.252Z,5.60
2019-05-25T13:40:07.732Z,4.70
2019-05-25T13:42:37.621Z,4.83
2019-05-25T13:45:09.720Z,4.93
2019-05-25T13:47:42.469Z,4.60
2019-05-25T13:50:18.896Z,4.80
2019-05-25T13:52:53.299Z,4.30
2019-05-25T13:55:24.382Z,4.60
2019-05-25T13:57:58.270Z,4.30
2019-05-25T14:00:30.355Z,5.00
2019-05-25T14:03:07.894Z,3.90
2019-05-25T14:05:41.299Z,3.70
2019-05-25T14:08:14.147Z,4.10
2019-05-25T14:10:45.893Z,4.17
2019-05-25T14:13:18.275Z,4.43
2019-05-25T14:16:06.221Z,4.07
2019-05-25T14:18:31.220Z,5.20
2019-05-25T14:21:08.361Z,4.47
2019-05-25T14:23:41.972Z,4.37
2019-05-25T14:26:16.772Z,4.53
2019-05-25T14:28:55.628Z,4.10
2019-05-25T14:31:46.878Z,4.20
2019-05-25T14:34:19.492Z,4.10
2019-05-25T14:36:48.804Z,4.40
2019-05-25T14:39:21.058Z,6.17
2019-05-25T14:41:51.045Z,5.03
2019-05-25T14:44:24.967Z,5.30
2019-05-25T14:46:58.370Z,4.73
2019-05-25T14:49:33.400Z,5.00
2019-05-25T14:52:04.409Z,4.97
2019-05-25T14:54:34.224Z,5.70
2019-05-25T14:57:13.262Z,5.77
2019-05-25T15:02:47.475Z,6.07
2019-05-25T15:05:19.045Z,5.67
2019-05-25T15:07:50.381Z,5.73
2019-05-25T15:10:24.430Z,6.27
2019-05-25T15:12:53.786Z,5.60
2019-05-25T15:15:29.435Z,5.80
2019-05-25T15:18:01.182Z,6.27
2019-05-25T15:20:36.332Z,6.90
2019-05-25T15:23:09.858Z,6.10
2019-05-25T15:25:41.474Z,6.13
2019-05-25T15:28:14.507Z,6.20
2019-05-25T15:30:45.876Z,5.63
2019-05-25T15:33:17.739Z,5.20
2019-05-25T15:35:54.627Z,5.53
2019-05-25T15:38:23.829Z,5.30
2019-05-25T15:40:54.298Z,5.83
2019-05-25T15:43:25.433Z,5.80
2019-05-25T15:45:57.511Z,5.67
2019-05-25T15:48:31.878Z,5.43
2019-05-25T15:51:04.412Z,5.43
2019-05-25T15:53:38.605Z,5.90
2019-05-25T15:56:15.165Z,5.27
2019-05-25T15:58:48.663Z,5.10
2019-05-25T16:01:17.842Z,4.77
2019-05-25T16:03:46.684Z,5.33
2019-05-25T16:06:23.859Z,10.30
2019-05-25T16:09:00.353Z,5.33
2019-05-25T16:11:32.250Z,6.80
2019-05-25T16:14:07.612Z,5.80
2019-05-25T16:16:38.329Z,5.27
2019-05-25T16:19:08.843Z,6.03
2019-05-25T16:21:39.806Z,6.60
2019-05-25T16:24:12.837Z,5.90
2019-05-25T16:26:50.321Z,6.30
2019-05-25T16:29:22.776Z,5.30
2019-05-25T16:31:58.073Z,5.07
2019-05-25T16:34:35.129Z,5.40
2019-05-25T16:37:16.595Z,6.07
2019-05-25T16:39:54.480Z,5.73
2019-05-25T16:42:27.846Z,5.40
2019-05-25T16:45:05.519Z,5.40
2019-05-25T16:47:37.260Z,5.30
2019-05-25T16:50:08.686Z,5.67
2019-05-25T16:52:41.369Z,5.60
2019-05-25T16:55:18.753Z,6.00
2019-05-25T16:57:52.177Z,4.90
2019-05-25T17:00:33.147Z,6.40
2019-05-25T17:03:08.014Z,6.33
2019-05-25T17:05:42.154Z,5.80
2019-05-25T17:08:19.591Z,5.83
2019-05-25T17:10:56.811Z,5.53
2019-05-25T17:13:33.027Z,6.27
2019-05-25T17:16:11.446Z,5.90
2019-05-25T17:18:49.524Z,5.13
2019-05-25T17:21:25.111Z,5.87
2019-05-25T17:23:58.375Z,5.47
2019-05-25T17:26:30.627Z,5.57
2019-05-25T17:29:00.860Z,4.97
2019-05-25T17:31:32.727Z,5.47
2019-05-25T17:34:02.163Z,5.10
2019-05-25T17:36:37.937Z,6.53
2019-05-25T17:39:11.984Z,5.50
2019-05-25T17:42:25.388Z,6.27
2019-05-25T17:44:56.355Z,6.40
2019-05-25T17:47:39.151Z,6.63
2019-05-25T17:50:18.780Z,5.50
2019-05-25T17:52:54.221Z,5.63
2019-05-25T17:55:29.506Z,5.23
2019-05-25T17:58:02.409Z,5.40
2019-05-25T18:01:04.292Z,5.67
2019-05-25T18:04:05.655Z,5.57
2019-05-25T18:06:27.657Z,5.20
2019-05-25T18:09:08.351Z,5.20
2019-05-25T18:11:41.903Z,4.77
2019-05-25T18:14:22.781Z,5.23
2019-05-25T18:17:00.163Z,5.17
2019-05-25T18:22:23.881Z,5.00
2019-05-25T18:24:56.622Z,5.90
2019-05-25T18:27:34.600Z,4.93
2019-05-25T18:30:17.273Z,5.23
2019-05-25T18:32:55.815Z,4.97
2019-05-25T18:35:27.332Z,5.33
2019-05-25T18:38:01.135Z,5.73
2019-05-25T18:40:41.159Z,5.83
2019-05-25T18:43:16.098Z,5.87
2019-05-25T18:45:47.456Z,5.13
2019-05-25T18:48:19.409Z,6.07
2019-05-25T18:50:59.376Z,5.50
2019-05-25T18:53:32.320Z,5.30
2019-05-25T18:56:07.885Z,5.53
2019-05-25T18:58:42.365Z,5.43
2019-05-25T19:04:09.443Z,6.07
2019-05-25T19:06:43.409Z,5.90
2019-05-25T19:09:25.141Z,5.97
2019-05-25T19:11:58.723Z,5.73
2019-05-25T19:14:32.525Z,6.40
2019-05-25T19:17:06.434Z,5.07
2019-05-25T19:19:41.452Z,4.40
2019-05-25T19:22:22.687Z,5.10
2019-05-25T19:25:02.075Z,5.07
2019-05-25T19:27:38.952Z,4.60
2019-05-25T19:30:23.438Z,4.40
2019-05-25T19:33:16.721Z,4.80
2019-05-25T19:35:42.819Z,4.90
2019-05-25T19:38:14.363Z,4.83
2019-05-25T19:43:43.729Z,5.00
2019-05-25T19:46:16.969Z,5.00
2019-05-25T19:49:15.972Z,5.90
2019-05-25T19:51:31.698Z,4.93
2019-05-25T19:54:13.227Z,4.80
2019-05-25T19:56:47.889Z,5.03
2019-05-25T19:59:24.355Z,4.93
2019-05-25T20:01:56.985Z,4.73
2019-05-25T20:04:31.636Z,4.90
2019-05-25T20:07:04.707Z,5.70
2019-05-25T20:09:44.890Z,5.67
2019-05-25T20:12:16.777Z,6.33
2019-05-25T20:14:52.119Z,5.10
2019-05-25T20:17:32.175Z,5.47
2019-05-25T20:20:07.082Z,4.97
2019-05-25T20:22:36.735Z,5.80
2019-05-25T20:28:04.469Z,6.37
2019-05-25T20:30:39.553Z,5.83
2019-05-25T20:33:27.152Z,6.00
2019-05-25T20:36:19.109Z,5.87
2019-05-25T20:38:54.849Z,6.17
2019-05-25T20:41:38.399Z,5.27
2019-05-25T20:44:12.711Z,5.40
2019-05-25T20:46:47.204Z,6.07
2019-05-25T20:49:19.431Z,5.67
2019-05-25T20:51:49.532Z,5.57
2019-05-25T20:54:23.239Z,7.60
2019-05-25T20:57:00.537Z,8.00
2019-05-25T20:59:31.492Z,7.17
2019-05-25T21:02:09.069Z,7.90
2019-05-25T21:04:50.169Z,6.93
2019-05-25T21:07:28.242Z,6.70
2019-05-25T21:09:58.855Z,6.43
2019-05-25T21:12:31.065Z,6.73
2019-05-25T21:15:16.216Z,5.73
2019-05-25T21:18:04.280Z,6.10
2019-05-25T21:20:29.363Z,6.77
2019-05-25T21:23:01.017Z,5.47
2019-05-25T21:25:37.438Z,5.53
2019-05-25T21:28:11.921Z,5.73
2019-05-25T21:30:47.755Z,6.30
2019-05-25T21:33:23.016Z,5.57
2019-05-25T21:36:07.634Z,6.23
2019-05-25T21:38:31.026Z,5.83
2019-05-25T21:41:04.258Z,5.60
2019-05-25T21:43:38.888Z,6.43
2019-05-25T21:46:17.143Z,6.23
2019-05-25T21:48:58.041Z,6.37
2019-05-25T21:51:38.611Z,6.13
2019-05-25T21:54:07.606Z,5.97
2019-05-25T21:56:37.607Z,6.20
2019-05-25T21:59:17.073Z,5.93
2019-05-25T22:01:46.779Z,5.33
2019-05-25T22:04:18.958Z,6.37
2019-05-25T22:06:53.589Z,5.90
2019-05-25T22:09:26.163Z,6.00
2019-05-25T22:12:00.455Z,6.10
2019-05-25T22:14:33.461Z,6.50
2019-05-25T22:17:08.327Z,6.10
2019-05-25T22:19:47.300Z,6.47
2019-05-25T22:22:20.620Z,5.93
2019-05-25T22:24:56.212Z,6.63
2019-05-25T22:27:27.929Z,5.97
2019-05-25T22:30:13.186Z,6.10
2019-05-25T22:32:44.604Z,6.30
2019-05-25T22:35:35.772Z,6.07
2019-05-25T22:38:08.833Z,6.30
2019-05-25T22:40:42.748Z,6.47
2019-05-25T22:43:33.993Z,6.47
2019-05-25T22:46:16.645Z,6.67
2019-05-25T22:51:43.536Z,5.77
2019-05-25T22:54:17.442Z,7.13
2019-05-25T22:56:57.466Z,6.67
2019-05-25T22:59:31.753Z,6.33
2019-05-25T23:02:06.848Z,6.40
2019-05-25T23:04:54.090Z,6.53
2019-05-25T23:07:36.245Z,6.07
2019-05-25T23:10:12.730Z,6.10
2019-05-25T23:12:47.046Z,6.23
2019-05-25T23:15:23.754Z,6.37
2019-05-25T23:17:56.067Z,6.97
2019-05-25T23:20:29.465Z,6.07
2019-05-25T23:23:04.232Z,6.57
2019-05-25T23:25:36.307Z,6.50
2019-05-25T23:28:11.504Z,6.23
2019-05-25T23:30:43.838Z,6.43
2019-05-25T23:33:13.752Z,7.40
2019-05-25T23:35:50.026Z,6.13
2019-05-25T23:38:23.262Z,6.97
2019-05-25T23:40:56.538Z,6.63
2019-05-25T23:43:32.125Z,6.57
2019-05-25T23:46:03.430Z,6.50
2019-05-25T23:48:41.002Z,6.57
2019-05-25T23:51:13.429Z,6.43
2019-05-25T23:53:44.384Z,6.53
2019-05-25T23:56:19.044Z,6.43
2019-05-25T23:58:55.516Z,6.60
